sensor_id;sensor_type;location;lat;lon;timestamp;temperature;humidity
3262;DHT22;1643;47.746;9.000;2023-03-29T00:00:21;8.80;97.50
3262;DHT22;1643;47.746;9.000;2023-03-29T00:02:47;8.90;97.60
3262;DHT22;1643;47.746;9.000;2023-03-29T00:05:14;8.80;97.70
3262;DHT22;1643;47.746;9.000;2023-03-29T00:07:40;8.80;97.80
3262;DHT22;1643;47.746;9.000;2023-03-29T00:10:07;8.70;97.90
3262;DHT22;1643;47.746;9.000;2023-03-29T00:12:36;8.70;98.00
3262;DHT22;1643;47.746;9.000;2023-03-29T00:15:03;8.70;98.10
3262;DHT22;1643;47.746;9.000;2023-03-29T00:17:30;8.70;98.00
3262;DHT22;1643;47.746;9.000;2023-03-29T00:19:55;8.80;98.00
3262;DHT22;1643;47.746;9.000;2023-03-29T00:22:21;8.70;97.90
3262;DHT22;1643;47.746;9.000;2023-03-29T00:24:47;8.70;97.90
3262;DHT22;1643;47.746;9.000;2023-03-29T00:27:14;8.70;98.20
3262;DHT22;1643;47.746;9.000;2023-03-29T00:29:41;8.70;97.80
3262;DHT22;1643;47.746;9.000;2023-03-29T00:32:06;8.70;98.20
3262;DHT22;1643;47.746;9.000;2023-03-29T00:34:32;8.70;98.00
3262;DHT22;1643;47.746;9.000;2023-03-29T00:37:01;8.70;97.90
3262;DHT22;1643;47.746;9.000;2023-03-29T00:39:29;8.70;97.70
3262;DHT22;1643;47.746;9.000;2023-03-29T00:41:55;8.80;97.80
3262;DHT22;1643;47.746;9.000;2023-03-29T00:49:49;8.70;98.00
3262;DHT22;1643;47.746;9.000;2023-03-29T00:52:17;8.70;98.10
3262;DHT22;1643;47.746;9.000;2023-03-29T00:54:48;8.70;98.20
3262;DHT22;1643;47.746;9.000;2023-03-29T00:57:16;8.60;98.20
3262;DHT22;1643;47.746;9.000;2023-03-29T00:59:44;8.70;98.30
3262;DHT22;1643;47.746;9.000;2023-03-29T01:02:12;8.70;98.30
3262;DHT22;1643;47.746;9.000;2023-03-29T01:04:51;8.70;98.40
3262;DHT22;1643;47.746;9.000;2023-03-29T01:07:28;8.80;98.50
3262;DHT22;1643;47.746;9.000;2023-03-29T01:10:09;8.80;98.60
3262;DHT22;1643;47.746;9.000;2023-03-29T01:12:42;8.80;98.70
3262;DHT22;1643;47.746;9.000;2023-03-29T01:15:22;8.70;98.80
3262;DHT22;1643;47.746;9.000;2023-03-29T01:17:49;8.60;99.00
3262;DHT22;1643;47.746;9.000;2023-03-29T01:28:52;8.50;99.30
3262;DHT22;1643;47.746;9.000;2023-03-29T01:31:29;8.50;99.30
3262;DHT22;1643;47.746;9.000;2023-03-29T01:34:02;8.60;99.30
3262;DHT22;1643;47.746;9.000;2023-03-29T01:36:38;8.60;99.30
3262;DHT22;1643;47.746;9.000;2023-03-29T01:39:05;8.60;99.30
3262;DHT22;1643;47.746;9.000;2023-03-29T01:41:54;8.50;99.20
3262;DHT22;1643;47.746;9.000;2023-03-29T01:44:46;8.60;99.10
3262;DHT22;1643;47.746;9.000;2023-03-29T01:47:48;8.60;98.90
3262;DHT22;1643;47.746;9.000;2023-03-29T01:53:40;8.60;99.10
3262;DHT22;1643;47.746;9.000;2023-03-29T01:56:11;8.60;99.20
3262;DHT22;1643;47.746;9.000;2023-03-29T01:58:42;8.60;99.20
3262;DHT22;1643;47.746;9.000;2023-03-29T02:01:10;8.60;99.20
3262;DHT22;1643;47.746;9.000;2023-03-29T02:03:41;8.60;99.20
3262;DHT22;1643;47.746;9.000;2023-03-29T02:06:12;8.60;99.10
3262;DHT22;1643;47.746;9.000;2023-03-29T02:08:40;8.60;99.10
3262;DHT22;1643;47.746;9.000;2023-03-29T02:11:07;8.60;99.10
3262;DHT22;1643;47.746;9.000;2023-03-29T02:13:34;8.60;99.10
3262;DHT22;1643;47.746;9.000;2023-03-29T02:16:02;8.60;99.10
3262;DHT22;1643;47.746;9.000;2023-03-29T02:18:28;8.60;99.10
3262;DHT22;1643;47.746;9.000;2023-03-29T02:20:55;8.60;99.40
3262;DHT22;1643;47.746;9.000;2023-03-29T02:23:44;8.60;99.10
3262;DHT22;1643;47.746;9.000;2023-03-29T02:26:12;8.60;99.10
3262;DHT22;1643;47.746;9.000;2023-03-29T02:28:39;8.60;99.00
3262;DHT22;1643;47.746;9.000;2023-03-29T02:33:59;8.60;99.00
3262;DHT22;1643;47.746;9.000;2023-03-29T02:36:42;8.60;99.10
3262;DHT22;1643;47.746;9.000;2023-03-29T02:39:09;8.60;99.10
3262;DHT22;1643;47.746;9.000;2023-03-29T02:41:38;8.50;99.20
3262;DHT22;1643;47.746;9.000;2023-03-29T02:44:06;8.60;99.30
3262;DHT22;1643;47.746;9.000;2023-03-29T02:46:35;8.50;99.30
3262;DHT22;1643;47.746;9.000;2023-03-29T02:49:02;8.60;99.40
3262;DHT22;1643;47.746;9.000;2023-03-29T02:51:33;8.40;99.40
3262;DHT22;1643;47.746;9.000;2023-03-29T02:56:47;8.50;99.80
3262;DHT22;1643;47.746;9.000;2023-03-29T02:59:15;8.50;99.80
3262;DHT22;1643;47.746;9.000;2023-03-29T03:01:41;8.40;99.70
3262;DHT22;1643;47.746;9.000;2023-03-29T03:04:10;8.40;99.70
3262;DHT22;1643;47.746;9.000;2023-03-29T03:06:37;8.50;99.70
3262;DHT22;1643;47.746;9.000;2023-03-29T03:09:03;8.50;99.70
3262;DHT22;1643;47.746;9.000;2023-03-29T03:11:30;8.50;99.60
3262;DHT22;1643;47.746;9.000;2023-03-29T03:13:56;8.50;99.70
3262;DHT22;1643;47.746;9.000;2023-03-29T03:16:22;8.50;99.60
3262;DHT22;1643;47.746;9.000;2023-03-29T03:18:49;8.60;99.70
3262;DHT22;1643;47.746;9.000;2023-03-29T03:21:16;8.50;99.70
3262;DHT22;1643;47.746;9.000;2023-03-29T03:23:43;8.50;99.80
3262;DHT22;1643;47.746;9.000;2023-03-29T03:26:10;8.50;99.90
3262;DHT22;1643;47.746;9.000;2023-03-29T03:28:36;8.50;99.90
3262;DHT22;1643;47.746;9.000;2023-03-29T03:31:01;8.50;99.90
3262;DHT22;1643;47.746;9.000;2023-03-29T03:33:27;8.40;99.90
3262;DHT22;1643;47.746;9.000;2023-03-29T03:35:53;8.40;99.90
3262;DHT22;1643;47.746;9.000;2023-03-29T03:38:33;8.40;99.90
3262;DHT22;1643;47.746;9.000;2023-03-29T03:40:59;8.40;99.90
3262;DHT22;1643;47.746;9.000;2023-03-29T03:43:26;8.40;99.90
3262;DHT22;1643;47.746;9.000;2023-03-29T03:45:53;8.40;99.90
3262;DHT22;1643;47.746;9.000;2023-03-29T03:48:19;8.40;99.90
3262;DHT22;1643;47.746;9.000;2023-03-29T03:50:55;8.20;99.90
3262;DHT22;1643;47.746;9.000;2023-03-29T03:53:22;8.30;99.90
3262;DHT22;1643;47.746;9.000;2023-03-29T03:55:51;8.30;99.90
3262;DHT22;1643;47.746;9.000;2023-03-29T03:58:18;8.30;99.90
3262;DHT22;1643;47.746;9.000;2023-03-29T04:00:46;8.30;99.90
3262;DHT22;1643;47.746;9.000;2023-03-29T04:03:12;8.30;99.90
3262;DHT22;1643;47.746;9.000;2023-03-29T04:05:39;8.30;99.90
3262;DHT22;1643;47.746;9.000;2023-03-29T04:08:05;8.30;99.90
3262;DHT22;1643;47.746;9.000;2023-03-29T04:10:32;8.30;99.90
3262;DHT22;1643;47.746;9.000;2023-03-29T04:12:59;8.40;99.90
3262;DHT22;1643;47.746;9.000;2023-03-29T04:15:30;8.30;99.90
3262;DHT22;1643;47.746;9.000;2023-03-29T04:17:57;8.30;99.90
3262;DHT22;1643;47.746;9.000;2023-03-29T04:20:23;8.30;99.90
3262;DHT22;1643;47.746;9.000;2023-03-29T04:22:49;8.30;99.90
3262;DHT22;1643;47.746;9.000;2023-03-29T04:25:15;8.20;99.90
3262;DHT22;1643;47.746;9.000;2023-03-29T04:27:41;8.20;99.90
3262;DHT22;1643;47.746;9.000;2023-03-29T04:30:08;8.20;99.90
3262;DHT22;1643;47.746;9.000;2023-03-29T04:32:34;8.30;99.90
3262;DHT22;1643;47.746;9.000;2023-03-29T04:35:00;8.30;99.90
3262;DHT22;1643;47.746;9.000;2023-03-29T04:37:26;8.40;99.90
3262;DHT22;1643;47.746;9.000;2023-03-29T04:39:53;9.00;99.90
3262;DHT22;1643;47.746;9.000;2023-03-29T04:42:19;8.30;99.90
3262;DHT22;1643;47.746;9.000;2023-03-29T04:44:45;8.20;99.90
3262;DHT22;1643;47.746;9.000;2023-03-29T04:47:11;8.20;99.90
3262;DHT22;1643;47.746;9.000;2023-03-29T04:49:38;8.20;99.90
3262;DHT22;1643;47.746;9.000;2023-03-29T04:52:03;8.20;99.90
3262;DHT22;1643;47.746;9.000;2023-03-29T04:54:29;8.20;99.90
3262;DHT22;1643;47.746;9.000;2023-03-29T04:56:55;8.20;99.90
3262;DHT22;1643;47.746;9.000;2023-03-29T04:59:21;8.20;99.90
3262;DHT22;1643;47.746;9.000;2023-03-29T05:01:46;8.30;99.90
3262;DHT22;1643;47.746;9.000;2023-03-29T05:04:12;8.20;99.90
3262;DHT22;1643;47.746;9.000;2023-03-29T05:06:39;8.20;99.90
3262;DHT22;1643;47.746;9.000;2023-03-29T05:09:04;8.20;99.90
3262;DHT22;1643;47.746;9.000;2023-03-29T05:11:31;8.20;99.90
3262;DHT22;1643;47.746;9.000;2023-03-29T05:13:57;8.20;99.90
3262;DHT22;1643;47.746;9.000;2023-03-29T05:16:27;8.20;99.90
3262;DHT22;1643;47.746;9.000;2023-03-29T05:18:55;8.20;99.90
3262;DHT22;1643;47.746;9.000;2023-03-29T05:21:21;8.20;99.90
3262;DHT22;1643;47.746;9.000;2023-03-29T05:23:46;8.20;99.90
3262;DHT22;1643;47.746;9.000;2023-03-29T05:26:12;8.30;99.90
3262;DHT22;1643;47.746;9.000;2023-03-29T05:28:40;8.30;99.90
3262;DHT22;1643;47.746;9.000;2023-03-29T05:31:06;8.30;99.90
3262;DHT22;1643;47.746;9.000;2023-03-29T05:33:33;8.30;99.90
3262;DHT22;1643;47.746;9.000;2023-03-29T05:36:03;8.30;99.90
3262;DHT22;1643;47.746;9.000;2023-03-29T05:38:29;8.30;99.90
3262;DHT22;1643;47.746;9.000;2023-03-29T05:40:57;8.40;99.90
3262;DHT22;1643;47.746;9.000;2023-03-29T05:43:23;8.40;99.90
3262;DHT22;1643;47.746;9.000;2023-03-29T05:45:49;8.40;99.90
3262;DHT22;1643;47.746;9.000;2023-03-29T05:48:16;8.40;99.90
3262;DHT22;1643;47.746;9.000;2023-03-29T05:50:46;8.40;99.90
3262;DHT22;1643;47.746;9.000;2023-03-29T05:53:11;8.40;99.90
3262;DHT22;1643;47.746;9.000;2023-03-29T05:55:37;8.50;99.90
3262;DHT22;1643;47.746;9.000;2023-03-29T05:58:02;8.40;99.90
3262;DHT22;1643;47.746;9.000;2023-03-29T06:00:28;8.40;99.90
3262;DHT22;1643;47.746;9.000;2023-03-29T06:02:56;8.40;99.90
3262;DHT22;1643;47.746;9.000;2023-03-29T06:05:21;8.50;99.90
3262;DHT22;1643;47.746;9.000;2023-03-29T06:07:47;8.50;99.90
3262;DHT22;1643;47.746;9.000;2023-03-29T06:10:16;8.50;99.90
3262;DHT22;1643;47.746;9.000;2023-03-29T06:12:43;8.50;99.90
3262;DHT22;1643;47.746;9.000;2023-03-29T06:15:08;8.50;99.90
3262;DHT22;1643;47.746;9.000;2023-03-29T06:17:34;8.50;99.90
3262;DHT22;1643;47.746;9.000;2023-03-29T06:20:00;8.60;99.90
3262;DHT22;1643;47.746;9.000;2023-03-29T06:22:26;8.60;99.90
3262;DHT22;1643;47.746;9.000;2023-03-29T06:24:52;8.60;99.90
3262;DHT22;1643;47.746;9.000;2023-03-29T06:27:18;8.60;99.90
3262;DHT22;1643;47.746;9.000;2023-03-29T06:29:44;8.60;99.90
3262;DHT22;1643;47.746;9.000;2023-03-29T06:32:10;8.60;99.90
3262;DHT22;1643;47.746;9.000;2023-03-29T06:34:36;8.60;99.90
3262;DHT22;1643;47.746;9.000;2023-03-29T06:37:02;8.70;99.90
3262;DHT22;1643;47.746;9.000;2023-03-29T06:39:28;8.70;99.90
3262;DHT22;1643;47.746;9.000;2023-03-29T06:41:54;8.60;99.90
3262;DHT22;1643;47.746;9.000;2023-03-29T06:44:20;8.60;99.90
3262;DHT22;1643;47.746;9.000;2023-03-29T06:46:46;8.60;99.90
3262;DHT22;1643;47.746;9.000;2023-03-29T06:49:12;8.70;99.90
3262;DHT22;1643;47.746;9.000;2023-03-29T06:51:38;8.70;99.90
3262;DHT22;1643;47.746;9.000;2023-03-29T06:54:04;8.80;99.90
3262;DHT22;1643;47.746;9.000;2023-03-29T06:56:30;8.80;99.90
3262;DHT22;1643;47.746;9.000;2023-03-29T06:58:56;8.90;99.90
3262;DHT22;1643;47.746;9.000;2023-03-29T07:01:22;8.90;99.90
3262;DHT22;1643;47.746;9.000;2023-03-29T07:03:48;9.00;99.90
3262;DHT22;1643;47.746;9.000;2023-03-29T07:06:13;9.00;99.90
3262;DHT22;1643;47.746;9.000;2023-03-29T07:08:42;9.10;99.90
3262;DHT22;1643;47.746;9.000;2023-03-29T07:11:11;9.20;99.90
3262;DHT22;1643;47.746;9.000;2023-03-29T07:13:41;9.20;99.90
3262;DHT22;1643;47.746;9.000;2023-03-29T07:16:11;9.30;99.90
3262;DHT22;1643;47.746;9.000;2023-03-29T07:18:42;9.30;99.90
3262;DHT22;1643;47.746;9.000;2023-03-29T07:21:09;9.40;99.90
3262;DHT22;1643;47.746;9.000;2023-03-29T07:23:36;9.50;99.90
3262;DHT22;1643;47.746;9.000;2023-03-29T07:26:03;9.60;99.90
3262;DHT22;1643;47.746;9.000;2023-03-29T07:28:30;9.60;99.90
3262;DHT22;1643;47.746;9.000;2023-03-29T07:31:07;9.70;99.90
3262;DHT22;1643;47.746;9.000;2023-03-29T07:33:35;9.80;99.90
3262;DHT22;1643;47.746;9.000;2023-03-29T07:36:01;9.80;99.90
3262;DHT22;1643;47.746;9.000;2023-03-29T07:38:27;9.90;99.90
3262;DHT22;1643;47.746;9.000;2023-03-29T07:40:53;10.00;99.90
3262;DHT22;1643;47.746;9.000;2023-03-29T07:43:20;9.90;99.90
3262;DHT22;1643;47.746;9.000;2023-03-29T07:45:45;10.10;99.90
3262;DHT22;1643;47.746;9.000;2023-03-29T07:48:11;10.10;99.90
3262;DHT22;1643;47.746;9.000;2023-03-29T07:50:37;10.10;99.90
3262;DHT22;1643;47.746;9.000;2023-03-29T07:53:03;10.10;99.90
3262;DHT22;1643;47.746;9.000;2023-03-29T07:55:29;10.10;99.90
3262;DHT22;1643;47.746;9.000;2023-03-29T07:57:55;10.20;99.90
3262;DHT22;1643;47.746;9.000;2023-03-29T08:00:21;10.20;99.90
3262;DHT22;1643;47.746;9.000;2023-03-29T08:02:50;10.30;99.90
3262;DHT22;1643;47.746;9.000;2023-03-29T08:05:17;10.30;99.90
3262;DHT22;1643;47.746;9.000;2023-03-29T08:07:44;10.40;99.90
3262;DHT22;1643;47.746;9.000;2023-03-29T08:10:16;10.30;99.90
3262;DHT22;1643;47.746;9.000;2023-03-29T08:12:43;10.40;99.90
3262;DHT22;1643;47.746;9.000;2023-03-29T08:15:09;10.40;99.90
3262;DHT22;1643;47.746;9.000;2023-03-29T08:17:35;10.40;99.90
3262;DHT22;1643;47.746;9.000;2023-03-29T08:20:02;10.40;99.90
3262;DHT22;1643;47.746;9.000;2023-03-29T08:22:28;10.50;99.90
3262;DHT22;1643;47.746;9.000;2023-03-29T08:24:53;10.40;99.90
3262;DHT22;1643;47.746;9.000;2023-03-29T08:27:19;10.40;99.90
3262;DHT22;1643;47.746;9.000;2023-03-29T08:29:45;10.40;99.90
3262;DHT22;1643;47.746;9.000;2023-03-29T08:32:11;10.50;99.90
3262;DHT22;1643;47.746;9.000;2023-03-29T08:34:37;10.60;99.90
3262;DHT22;1643;47.746;9.000;2023-03-29T08:37:03;10.60;99.90
3262;DHT22;1643;47.746;9.000;2023-03-29T08:39:29;10.70;99.90
3262;DHT22;1643;47.746;9.000;2023-03-29T08:42:18;10.70;99.90
3262;DHT22;1643;47.746;9.000;2023-03-29T08:44:50;10.80;99.90
3262;DHT22;1643;47.746;9.000;2023-03-29T08:49:50;10.90;99.90
3262;DHT22;1643;47.746;9.000;2023-03-29T08:52:37;10.90;99.90
3262;DHT22;1643;47.746;9.000;2023-03-29T08:55:06;10.90;99.90
3262;DHT22;1643;47.746;9.000;2023-03-29T08:57:43;10.90;99.90
3262;DHT22;1643;47.746;9.000;2023-03-29T09:00:37;11.00;99.90
3262;DHT22;1643;47.746;9.000;2023-03-29T09:03:22;11.00;99.90
3262;DHT22;1643;47.746;9.000;2023-03-29T09:06:10;11.00;99.90
3262;DHT22;1643;47.746;9.000;2023-03-29T09:08:47;11.10;99.90
3262;DHT22;1643;47.746;9.000;2023-03-29T09:17:36;11.30;99.90
3262;DHT22;1643;47.746;9.000;2023-03-29T09:19:57;11.40;99.90
3262;DHT22;1643;47.746;9.000;2023-03-29T09:28:02;11.30;99.20
3262;DHT22;1643;47.746;9.000;2023-03-29T09:30:34;11.40;99.10
3262;DHT22;1643;47.746;9.000;2023-03-29T09:33:23;11.50;98.70
3262;DHT22;1643;47.746;9.000;2023-03-29T09:35:53;11.50;98.50
3262;DHT22;1643;47.746;9.000;2023-03-29T09:38:21;11.60;98.30
3262;DHT22;1643;47.746;9.000;2023-03-29T09:41:01;11.60;98.30
3262;DHT22;1643;47.746;9.000;2023-03-29T09:43:34;11.60;98.20
3262;DHT22;1643;47.746;9.000;2023-03-29T09:46:03;11.70;98.10
3262;DHT22;1643;47.746;9.000;2023-03-29T09:48:35;11.80;98.10
3262;DHT22;1643;47.746;9.000;2023-03-29T09:51:04;11.90;98.20
3262;DHT22;1643;47.746;9.000;2023-03-29T09:53:31;11.90;98.10
3262;DHT22;1643;47.746;9.000;2023-03-29T09:55:58;11.90;98.00
3262;DHT22;1643;47.746;9.000;2023-03-29T09:58:27;12.00;97.90
3262;DHT22;1643;47.746;9.000;2023-03-29T10:00:59;12.10;97.90
3262;DHT22;1643;47.746;9.000;2023-03-29T10:03:30;12.10;97.70
3262;DHT22;1643;47.746;9.000;2023-03-29T10:05:58;12.10;97.70
3262;DHT22;1643;47.746;9.000;2023-03-29T10:08:40;12.20;97.80
3262;DHT22;1643;47.746;9.000;2023-03-29T10:11:17;12.40;97.80
3262;DHT22;1643;47.746;9.000;2023-03-29T10:13:46;12.50;97.70
3262;DHT22;1643;47.746;9.000;2023-03-29T10:16:43;12.60;97.60
3262;DHT22;1643;47.746;9.000;2023-03-29T10:19:17;12.70;97.50
3262;DHT22;1643;47.746;9.000;2023-03-29T10:21:45;12.70;97.40
3262;DHT22;1643;47.746;9.000;2023-03-29T10:24:11;12.80;97.40
3262;DHT22;1643;47.746;9.000;2023-03-29T10:26:37;12.90;97.40
3262;DHT22;1643;47.746;9.000;2023-03-29T10:29:05;13.00;97.50
3262;DHT22;1643;47.746;9.000;2023-03-29T10:31:31;13.00;97.20
3262;DHT22;1643;47.746;9.000;2023-03-29T10:34:01;13.00;97.10
3262;DHT22;1643;47.746;9.000;2023-03-29T10:36:28;13.00;97.00
3262;DHT22;1643;47.746;9.000;2023-03-29T10:38:57;12.90;97.00
3262;DHT22;1643;47.746;9.000;2023-03-29T10:41:24;12.90;96.90
3262;DHT22;1643;47.746;9.000;2023-03-29T10:43:52;12.90;96.90
3262;DHT22;1643;47.746;9.000;2023-03-29T10:46:39;12.90;96.60
3262;DHT22;1643;47.746;9.000;2023-03-29T10:49:16;12.90;96.50
3262;DHT22;1643;47.746;9.000;2023-03-29T10:51:46;13.00;96.20
3262;DHT22;1643;47.746;9.000;2023-03-29T10:54:16;12.90;96.00
3262;DHT22;1643;47.746;9.000;2023-03-29T10:56:48;13.00;96.00
3262;DHT22;1643;47.746;9.000;2023-03-29T10:59:28;13.10;95.90
3262;DHT22;1643;47.746;9.000;2023-03-29T11:28:46;13.40;94.50
3262;DHT22;1643;47.746;9.000;2023-03-29T11:31:28;13.60;94.00
3262;DHT22;1643;47.746;9.000;2023-03-29T11:34:11;13.70;94.20
3262;DHT22;1643;47.746;9.000;2023-03-29T11:39:29;13.90;93.60
3262;DHT22;1643;47.746;9.000;2023-03-29T11:42:07;14.00;93.00
3262;DHT22;1643;47.746;9.000;2023-03-29T11:44:36;14.00;92.60
3262;DHT22;1643;47.746;9.000;2023-03-29T11:47:16;14.10;92.00
3262;DHT22;1643;47.746;9.000;2023-03-29T11:50:16;14.10;92.20
3262;DHT22;1643;47.746;9.000;2023-03-29T11:52:51;14.10;92.00
3262;DHT22;1643;47.746;9.000;2023-03-29T11:55:26;14.30;91.90
3262;DHT22;1643;47.746;9.000;2023-03-29T12:00:34;14.50;90.80
3262;DHT22;1643;47.746;9.000;2023-03-29T12:11:30;15.00;91.00
3262;DHT22;1643;47.746;9.000;2023-03-29T12:14:08;15.00;90.80
3262;DHT22;1643;47.746;9.000;2023-03-29T12:21:45;14.60;91.30
3262;DHT22;1643;47.746;9.000;2023-03-29T12:24:12;14.60;91.10
3262;DHT22;1643;47.746;9.000;2023-03-29T12:27:21;14.60;91.00
3262;DHT22;1643;47.746;9.000;2023-03-29T12:32:42;14.70;90.80
3262;DHT22;1643;47.746;9.000;2023-03-29T12:35:37;14.80;91.00
3262;DHT22;1643;47.746;9.000;2023-03-29T12:38:17;15.10;89.60
3262;DHT22;1643;47.746;9.000;2023-03-29T12:40:46;15.10;88.10
3262;DHT22;1643;47.746;9.000;2023-03-29T12:43:32;15.20;87.00
3262;DHT22;1643;47.746;9.000;2023-03-29T12:46:25;15.30;88.60
3262;DHT22;1643;47.746;9.000;2023-03-29T12:48:59;15.40;87.30
3262;DHT22;1643;47.746;9.000;2023-03-29T12:51:31;15.60;85.80
3262;DHT22;1643;47.746;9.000;2023-03-29T12:54:18;15.70;86.10
3262;DHT22;1643;47.746;9.000;2023-03-29T12:59:25;15.70;87.40
3262;DHT22;1643;47.746;9.000;2023-03-29T13:02:56;15.70;88.00
3262;DHT22;1643;47.746;9.000;2023-03-29T13:04:55;15.80;87.30
3262;DHT22;1643;47.746;9.000;2023-03-29T13:14:59;16.30;85.50
3262;DHT22;1643;47.746;9.000;2023-03-29T13:17:26;16.40;85.40
3262;DHT22;1643;47.746;9.000;2023-03-29T13:23:22;16.80;83.50
3262;DHT22;1643;47.746;9.000;2023-03-29T13:31:37;17.00;85.20
3262;DHT22;1643;47.746;9.000;2023-03-29T13:39:50;16.90;88.30
3262;DHT22;1643;47.746;9.000;2023-03-29T13:42:53;17.00;88.20
3262;DHT22;1643;47.746;9.000;2023-03-29T13:45:31;17.00;88.30
3262;DHT22;1643;47.746;9.000;2023-03-29T13:48:45;17.00;87.10
3262;DHT22;1643;47.746;9.000;2023-03-29T13:56:30;17.20;84.10
3262;DHT22;1643;47.746;9.000;2023-03-29T13:59:18;17.10;85.10
3262;DHT22;1643;47.746;9.000;2023-03-29T14:02:04;17.30;86.20
3262;DHT22;1643;47.746;9.000;2023-03-29T14:04:36;17.60;85.20
3262;DHT22;1643;47.746;9.000;2023-03-29T14:07:05;17.70;85.80
3262;DHT22;1643;47.746;9.000;2023-03-29T14:09:34;17.80;83.80
3262;DHT22;1643;47.746;9.000;2023-03-29T14:12:01;18.00;83.30
3262;DHT22;1643;47.746;9.000;2023-03-29T14:14:29;18.30;84.50
3262;DHT22;1643;47.746;9.000;2023-03-29T14:16:56;18.60;79.90
3262;DHT22;1643;47.746;9.000;2023-03-29T14:19:34;18.70;81.30
3262;DHT22;1643;47.746;9.000;2023-03-29T14:22:01;18.70;80.50
3262;DHT22;1643;47.746;9.000;2023-03-29T14:24:39;18.70;80.80
3262;DHT22;1643;47.746;9.000;2023-03-29T14:27:06;18.40;79.80
3262;DHT22;1643;47.746;9.000;2023-03-29T14:29:35;18.00;81.40
3262;DHT22;1643;47.746;9.000;2023-03-29T14:32:11;17.90;81.60
3262;DHT22;1643;47.746;9.000;2023-03-29T14:34:38;17.80;82.30
3262;DHT22;1643;47.746;9.000;2023-03-29T14:37:05;17.60;82.90
3262;DHT22;1643;47.746;9.000;2023-03-29T14:39:33;17.40;83.00
3262;DHT22;1643;47.746;9.000;2023-03-29T14:41:59;17.40;83.10
3262;DHT22;1643;47.746;9.000;2023-03-29T14:44:32;17.30;83.60
3262;DHT22;1643;47.746;9.000;2023-03-29T14:46:59;17.20;84.70
3262;DHT22;1643;47.746;9.000;2023-03-29T14:49:26;17.30;86.00
3262;DHT22;1643;47.746;9.000;2023-03-29T14:51:53;17.30;86.70
3262;DHT22;1643;47.746;9.000;2023-03-29T14:54:31;17.30;87.30
3262;DHT22;1643;47.746;9.000;2023-03-29T14:56:58;17.40;88.10
3262;DHT22;1643;47.746;9.000;2023-03-29T14:59:27;17.50;88.60
3262;DHT22;1643;47.746;9.000;2023-03-29T15:01:54;17.70;89.10
3262;DHT22;1643;47.746;9.000;2023-03-29T15:04:19;17.80;89.30
3262;DHT22;1643;47.746;9.000;2023-03-29T15:06:45;18.10;89.50
3262;DHT22;1643;47.746;9.000;2023-03-29T15:09:17;18.20;88.80
3262;DHT22;1643;47.746;9.000;2023-03-29T15:11:53;18.10;88.60
3262;DHT22;1643;47.746;9.000;2023-03-29T15:14:20;17.80;88.80
3262;DHT22;1643;47.746;9.000;2023-03-29T15:16:49;18.00;85.90
3262;DHT22;1643;47.746;9.000;2023-03-29T15:21:44;18.00;78.80
3262;DHT22;1643;47.746;9.000;2023-03-29T15:27:02;17.70;81.90
3262;DHT22;1643;47.746;9.000;2023-03-29T15:29:39;17.60;82.20
3262;DHT22;1643;47.746;9.000;2023-03-29T15:32:09;17.60;81.90
3262;DHT22;1643;47.746;9.000;2023-03-29T15:34:35;17.50;82.10
3262;DHT22;1643;47.746;9.000;2023-03-29T15:37:02;17.50;81.70
3262;DHT22;1643;47.746;9.000;2023-03-29T15:39:28;17.40;81.80
3262;DHT22;1643;47.746;9.000;2023-03-29T15:41:55;17.60;80.70
3262;DHT22;1643;47.746;9.000;2023-03-29T15:44:32;17.40;81.10
3262;DHT22;1643;47.746;9.000;2023-03-29T15:46:58;17.50;80.80
3262;DHT22;1643;47.746;9.000;2023-03-29T15:49:24;17.40;81.10
3262;DHT22;1643;47.746;9.000;2023-03-29T15:51:51;17.30;81.40
3262;DHT22;1643;47.746;9.000;2023-03-29T15:54:20;17.20;81.50
3262;DHT22;1643;47.746;9.000;2023-03-29T15:56:50;17.30;82.00
3262;DHT22;1643;47.746;9.000;2023-03-29T15:59:17;17.20;82.70
3262;DHT22;1643;47.746;9.000;2023-03-29T16:01:42;17.10;83.10
3262;DHT22;1643;47.746;9.000;2023-03-29T16:04:17;17.20;83.20
3262;DHT22;1643;47.746;9.000;2023-03-29T16:06:45;17.20;83.50
3262;DHT22;1643;47.746;9.000;2023-03-29T16:09:13;17.10;83.10
3262;DHT22;1643;47.746;9.000;2023-03-29T16:11:39;17.10;84.00
3262;DHT22;1643;47.746;9.000;2023-03-29T16:14:31;17.10;83.90
3262;DHT22;1643;47.746;9.000;2023-03-29T16:16:59;17.00;83.50
3262;DHT22;1643;47.746;9.000;2023-03-29T16:19:26;17.10;83.90
3262;DHT22;1643;47.746;9.000;2023-03-29T16:21:52;17.10;84.50
3262;DHT22;1643;47.746;9.000;2023-03-29T16:24:21;17.10;83.50
3262;DHT22;1643;47.746;9.000;2023-03-29T16:26:47;17.10;83.10
3262;DHT22;1643;47.746;9.000;2023-03-29T16:29:13;17.00;83.20
3262;DHT22;1643;47.746;9.000;2023-03-29T16:31:41;16.90;83.90
3262;DHT22;1643;47.746;9.000;2023-03-29T16:34:09;16.80;84.30
3262;DHT22;1643;47.746;9.000;2023-03-29T16:36:37;16.90;84.20
3262;DHT22;1643;47.746;9.000;2023-03-29T16:39:03;16.90;84.00
3262;DHT22;1643;47.746;9.000;2023-03-29T16:41:30;16.90;84.40
3262;DHT22;1643;47.746;9.000;2023-03-29T16:43:57;16.80;84.60
3262;DHT22;1643;47.746;9.000;2023-03-29T16:46:23;16.80;85.00
3262;DHT22;1643;47.746;9.000;2023-03-29T16:48:49;16.70;84.80
3262;DHT22;1643;47.746;9.000;2023-03-29T16:51:18;16.80;85.10
3262;DHT22;1643;47.746;9.000;2023-03-29T16:53:43;16.70;85.50
3262;DHT22;1643;47.746;9.000;2023-03-29T16:56:09;16.60;85.60
3262;DHT22;1643;47.746;9.000;2023-03-29T16:58:37;16.60;85.50
3262;DHT22;1643;47.746;9.000;2023-03-29T17:01:14;16.60;85.50
3262;DHT22;1643;47.746;9.000;2023-03-29T17:03:41;16.70;85.70
3262;DHT22;1643;47.746;9.000;2023-03-29T17:06:09;16.60;85.70
3262;DHT22;1643;47.746;9.000;2023-03-29T17:08:34;16.60;86.00
3262;DHT22;1643;47.746;9.000;2023-03-29T17:11:01;16.70;84.70
3262;DHT22;1643;47.746;9.000;2023-03-29T17:13:27;16.60;85.50
3262;DHT22;1643;47.746;9.000;2023-03-29T17:15:54;16.60;86.70
3262;DHT22;1643;47.746;9.000;2023-03-29T17:18:21;16.50;86.20
3262;DHT22;1643;47.746;9.000;2023-03-29T17:20:55;16.50;86.50
3262;DHT22;1643;47.746;9.000;2023-03-29T17:23:21;16.50;86.60
3262;DHT22;1643;47.746;9.000;2023-03-29T17:25:46;16.40;86.60
3262;DHT22;1643;47.746;9.000;2023-03-29T17:28:12;16.50;86.90
3262;DHT22;1643;47.746;9.000;2023-03-29T17:30:38;16.40;87.00
3262;DHT22;1643;47.746;9.000;2023-03-29T17:33:04;16.40;87.20
3262;DHT22;1643;47.746;9.000;2023-03-29T17:35:30;16.40;87.30
3262;DHT22;1643;47.746;9.000;2023-03-29T17:37:56;16.40;87.60
3262;DHT22;1643;47.746;9.000;2023-03-29T17:40:23;16.30;88.20
3262;DHT22;1643;47.746;9.000;2023-03-29T17:42:49;16.40;87.70
3262;DHT22;1643;47.746;9.000;2023-03-29T17:45:17;16.30;87.70
3262;DHT22;1643;47.746;9.000;2023-03-29T17:47:42;16.30;87.90
3262;DHT22;1643;47.746;9.000;2023-03-29T17:50:09;16.30;88.00
3262;DHT22;1643;47.746;9.000;2023-03-29T17:52:35;16.30;88.20
3262;DHT22;1643;47.746;9.000;2023-03-29T17:55:01;16.30;88.40
3262;DHT22;1643;47.746;9.000;2023-03-29T17:57:27;16.30;88.60
3262;DHT22;1643;47.746;9.000;2023-03-29T17:59:52;16.20;88.90
3262;DHT22;1643;47.746;9.000;2023-03-29T18:02:22;16.20;89.00
3262;DHT22;1643;47.746;9.000;2023-03-29T18:04:49;16.20;89.20
3262;DHT22;1643;47.746;9.000;2023-03-29T18:07:15;16.20;89.20
3262;DHT22;1643;47.746;9.000;2023-03-29T18:09:41;16.10;89.10
3262;DHT22;1643;47.746;9.000;2023-03-29T18:12:10;16.00;89.10
3262;DHT22;1643;47.746;9.000;2023-03-29T18:14:36;16.00;89.20
3262;DHT22;1643;47.746;9.000;2023-03-29T18:17:01;16.00;89.10
3262;DHT22;1643;47.746;9.000;2023-03-29T18:19:27;16.00;89.10
3262;DHT22;1643;47.746;9.000;2023-03-29T18:21:53;16.00;89.20
3262;DHT22;1643;47.746;9.000;2023-03-29T18:24:19;16.00;89.40
3262;DHT22;1643;47.746;9.000;2023-03-29T18:26:44;16.00;90.50